Flight Track Log - Related Links

Times and Time Zones

All times are in EDT time to prevent confusion due to time zone crossing. See the UAL4086 flight status page for this flight to view local times or setup timezone preferences in your user account.


Time Position Orientation Groundspeed Altitude Reporting Facility
EDT Latitude Longitude Course Direction KTS MPH feet Rate Location/Type
Fri 10:12:14 AM 29.9794 -95.3536 247° West 140 161 700  Level Houston Center
Fri 10:13:09 AM 29.9819 -95.4039 273° West 212 244 2,400 2,066 Climbing Houston Center
Fri 10:14:16 AM 29.9753 -95.4775 264° West 234 269 4,900 2,372 Climbing Houston Center
Fri 10:15:00 AM 29.8855 -95.6258 252° West  Level FlightAware Approximate
Fri 10:15:18 AM 29.9661 -95.5536 262° West 241 277 7,500  Level Houston Center
Fri 10:16:00 AM 29.8533 -95.7235 249° West  Level FlightAware Approximate
Fri 10:16:20 AM 29.9394 -95.6406 251° West 238 274 10,800  Level Houston Center
Fri 10:17:00 AM 29.8198 -95.8206 247° West  Level FlightAware Approximate
Fri 10:17:21 AM 29.9172 -95.7150 251° West 245 282 12,200  Level Houston Center
Fri 10:18:23 AM 29.8911 -95.8003 251° West 275 316 14,000 1,839 Climbing Houston Center
Fri 10:19:25 AM 29.8678 -95.8836 252° West 275 316 16,000 1,887 Climbing Houston Center
Fri 10:20:27 AM 29.8431 -95.9647 251° West 272 313 17,900 1,597 Climbing Houston Center
Fri 10:21:29 AM 29.8183 -96.0469 251° West 257 296 19,300 1,161 Climbing Houston Center
Fri 10:22:31 AM 29.7958 -96.1247 252° West 256 295 20,300 1,065 Climbing Houston Center
Fri 10:23:33 AM 29.7825 -96.2269 261° West 282 325 21,500 1,056 Climbing Houston Center
Fri 10:24:36 AM 29.7897 -96.3225 275° West 300 345 22,500 960 Climbing Houston Center
Fri 10:25:38 AM 29.7967 -96.4228 275° West 314 361 23,500 968 Climbing Houston Center
Fri 10:26:40 AM 29.8044 -96.5269 275° West 326 375 24,500 919 Climbing Houston Center
Fri 10:27:42 AM 29.8128 -96.6317 275° West 330 380 25,400 726 Climbing Houston Center
Fri 10:28:44 AM 29.8203 -96.7367 275° West 331 381 26,000 290 Climbing Houston Center
Fri 10:29:46 AM 29.8303 -96.8683 275° West 347 399 26,000  Level Houston Center
Fri 10:30:48 AM 29.8378 -96.9817 274° West 356 410 26,000 -194 Level Houston Center
Fri 10:31:50 AM 29.8461 -97.0983 275° West 366 421 25,600 -968 Descending Houston Center
Fri 10:32:52 AM 29.8542 -97.2128 275° West 362 417 24,000 -1,210 Descending Houston Center
Fri 10:33:54 AM 29.8633 -97.3539 274° West 371 427 23,100 -2,016 Descending Houston Center
Fri 10:34:57 AM 29.8714 -97.4681 275° West 360 414 19,800 -3,156 Descending Houston Center
Fri 10:36:09 AM 29.8794 -97.5989 274° West 340 391 16,000 -3,248 Descending Houston Center
Fri 10:36:46 AM 29.8836 -97.6633 274° West 332 382 13,900 -3,231 Descending Houston Center
Fri 10:37:01 AM 29.8867 -97.6953 276° West 331 381 13,200 -885 Descending Houston Center
Fri 10:37:47 AM 29.8906 -97.7758 273° West 323 372 13,000 -194 Descending Houston Center
Fri 10:38:03 AM 29.8928 -97.7989 276° West 325 374 13,000  Level Houston Center
Fri 10:38:41 AM 29.8925 -97.8625 270° West 327 376 13,000  Level Houston Center
Fri 10:39:05 AM 29.8797 -97.9014 249° West 335 386 13,000 -358 Level Houston Center
Fri 10:39:48 AM 29.8506 -97.9739 245° Southwest 326 375 12,600 -677 Descending Houston Center
Fri 10:40:07 AM 29.8389 -97.9997 243° Southwest 313 360 12,300 -1,200 Descending Houston Center
Fri 10:40:43 AM 29.8200 -98.0475 246° West 265 305 11,500 -1,452 Descending Houston Center
Fri 10:41:09 AM 29.8075 -98.0747 242° Southwest 262 302 10,800 -1,964 Descending Houston Center
Fri 10:41:38 AM 29.7906 -98.1139 244° Southwest 246 283 9,700 -2,032 Descending Houston Center
Fri 10:42:11 AM 29.7742 -98.1525 244° Southwest 252 290 8,700 -1,900 Descending Houston Center
Fri 10:42:38 AM 29.7594 -98.1875 244° Southwest 250 288 7,800 -1,935 Descending Houston Center
Fri 10:43:13 AM 29.7436 -98.2250 244° Southwest 252 290 6,700 -1,869 Descending Houston Center
Fri 10:43:39 AM 29.7192 -98.2503 222° Southwest 264 304 5,900 -1,645 Descending Houston Center
Fri 10:44:15 AM 29.6728 -98.2608 191° South 272 313 5,000 -806 Descending Houston Center
Fri 10:44:46 AM 29.6369 -98.2697 192° South 282 325 5,000  Level Houston Center
Fri 10:45:17 AM 29.5947 -98.2828 195° South 286 329 5,000 -98 Level Houston Center
Fri 10:45:47 AM 29.5572 -98.2917 192° South 295 339 4,900 -484 Descending Houston Center
Fri 10:46:19 AM 29.5175 -98.3042 195° South 285 328 4,500 -393 Descending Houston Center
Fri 10:46:48 AM 29.4836 -98.3125 192° South 273 314 4,500 -968 Level Houston Center
Fri 10:47:21 AM 29.4453 -98.3392 211° Southwest 269 310 3,500 -1,714 Descending Houston Center
Fri 10:47:37 AM 29.4414 -98.3561 255° West 249 287 3,100 -1,500 Descending Houston Center

Login

Don't have an account? Register now (free) for customized features, flight alerts, and more!